createdAt,value
2022-08-17T00:00:33.261Z,71.90
2022-08-17T00:03:02.923Z,72.00
2022-08-17T00:05:33.663Z,71.70
2022-08-17T00:08:01.973Z,71.80
2022-08-17T00:10:30.013Z,71.80
2022-08-17T00:13:00.527Z,71.80
2022-08-17T00:15:28.404Z,71.90
2022-08-17T00:17:56.353Z,71.90
2022-08-17T00:20:33.425Z,72.00
2022-08-17T00:23:05.345Z,72.00
2022-08-17T00:25:33.432Z,72.10
2022-08-17T00:28:02.022Z,72.20
2022-08-17T00:30:30.325Z,72.10
2022-08-17T00:33:25.809Z,72.20
2022-08-17T00:35:54.406Z,72.40
2022-08-17T00:38:24.198Z,72.50
2022-08-17T00:40:55.982Z,72.70
2022-08-17T00:43:29.290Z,72.50
2022-08-17T00:45:57.669Z,72.60
2022-08-17T00:48:30.102Z,72.70
2022-08-17T00:51:00.903Z,72.40
2022-08-17T00:53:31.383Z,72.30
2022-08-17T00:56:00.879Z,72.20
2022-08-17T00:58:35.904Z,72.30
2022-08-17T01:01:05.680Z,72.40
2022-08-17T01:03:33.937Z,72.50
2022-08-17T01:06:02.712Z,72.60
2022-08-17T01:08:32.491Z,72.70
2022-08-17T01:11:02.390Z,72.80
2022-08-17T01:13:38.173Z,72.80
2022-08-17T01:16:11.315Z,72.70
2022-08-17T01:18:39.392Z,72.60
2022-08-17T01:21:10.127Z,72.60
2022-08-17T01:23:41.961Z,72.50
2022-08-17T01:26:10.001Z,72.40
2022-08-17T01:28:54.373Z,72.40
2022-08-17T01:31:23.708Z,72.10
2022-08-17T01:33:51.590Z,72.20
2022-08-17T01:36:19.506Z,72.40
2022-08-17T01:38:48.780Z,72.30
2022-08-17T01:41:17.559Z,72.40
2022-08-17T01:43:46.703Z,72.40
2022-08-17T01:46:16.646Z,72.40
2022-08-17T01:48:47.444Z,72.60
2022-08-17T01:51:15.914Z,72.60
2022-08-17T01:53:45.661Z,72.80
2022-08-17T01:56:16.357Z,72.70
2022-08-17T01:58:44.363Z,73.00
2022-08-17T02:01:16.618Z,73.00
2022-08-17T02:03:59.149Z,72.90
2022-08-17T02:06:29.374Z,73.10
2022-08-17T02:09:02.534Z,73.20
2022-08-17T02:11:34.528Z,73.30
2022-08-17T02:14:04.137Z,73.30
2022-08-17T02:16:36.862Z,73.30
2022-08-17T02:19:07.624Z,73.20
2022-08-17T02:21:35.692Z,73.20
2022-08-17T02:24:04.354Z,73.30
2022-08-17T02:26:33.626Z,73.20
2022-08-17T02:29:01.943Z,73.40
2022-08-17T02:31:30.040Z,73.30
2022-08-17T02:34:04.702Z,73.60
2022-08-17T02:36:33.594Z,73.60
2022-08-17T02:39:01.880Z,73.50
2022-08-17T02:41:29.776Z,73.40
2022-08-17T02:43:59.026Z,73.30
2022-08-17T02:46:27.014Z,73.40
2022-08-17T02:48:54.983Z,73.40
2022-08-17T02:51:22.956Z,73.40
2022-08-17T02:53:50.970Z,73.40
2022-08-17T02:56:19.140Z,73.30
2022-08-17T02:58:47.302Z,73.10
2022-08-17T03:01:16.655Z,73.40
2022-08-17T03:03:44.602Z,73.40
2022-08-17T03:06:12.598Z,73.40
2022-08-17T03:08:40.583Z,73.30
2022-08-17T03:11:08.510Z,73.50
2022-08-17T03:13:36.406Z,73.60
2022-08-17T03:16:04.499Z,73.70
2022-08-17T03:18:33.713Z,73.60
2022-08-17T03:21:04.191Z,73.70
2022-08-17T03:23:32.727Z,73.60
2022-08-17T03:26:01.279Z,73.60
2022-08-17T03:28:30.144Z,73.50
2022-08-17T03:30:58.335Z,73.60
2022-08-17T03:33:26.285Z,73.70
2022-08-17T03:35:55.713Z,73.80
2022-08-17T03:38:23.739Z,73.90
2022-08-17T03:40:59.140Z,74.00
2022-08-17T03:43:28.556Z,74.00
2022-08-17T03:46:27.607Z,74.00
2022-08-17T03:49:15.005Z,74.10
2022-08-17T03:52:01.457Z,74.10
2022-08-17T03:54:46.941Z,74.00
2022-08-17T03:57:14.952Z,74.00
2022-08-17T03:59:42.869Z,73.90
2022-08-17T04:02:15.255Z,74.10
2022-08-17T04:04:43.351Z,74.00
2022-08-17T04:07:12.700Z,74.10
2022-08-17T04:09:40.672Z,74.20
2022-08-17T04:12:08.725Z,74.10
2022-08-17T04:14:51.762Z,74.10
2022-08-17T04:17:22.197Z,73.80
2022-08-17T04:19:50.077Z,74.00
2022-08-17T04:22:33.070Z,74.00
2022-08-17T04:25:03.129Z,74.10
2022-08-17T04:27:31.040Z,74.10
2022-08-17T04:29:59.540Z,74.30
2022-08-17T04:33:04.214Z,74.40
2022-08-17T04:35:18.421Z,74.40
2022-08-17T04:37:47.921Z,74.60
2022-08-17T04:40:33.821Z,74.70
2022-08-17T04:43:02.802Z,74.40
2022-08-17T04:45:32.313Z,74.20
2022-08-17T04:48:00.909Z,74.00
2022-08-17T04:50:28.925Z,73.80
2022-08-17T04:53:01.692Z,73.60
2022-08-17T04:55:29.864Z,73.50
2022-08-17T04:58:00.260Z,73.10
2022-08-17T05:00:28.240Z,72.70
2022-08-17T05:02:56.583Z,72.70
2022-08-17T05:05:26.287Z,72.40
2022-08-17T05:07:54.635Z,72.30
2022-08-17T05:10:24.505Z,72.10
2022-08-17T05:12:58.107Z,72.00
2022-08-17T05:15:26.109Z,71.70
2022-08-17T05:17:54.297Z,71.30
2022-08-17T05:20:22.211Z,70.80
2022-08-17T05:22:51.186Z,69.80
2022-08-17T05:25:20.190Z,69.10
2022-08-17T05:27:54.388Z,68.60
2022-08-17T05:30:22.769Z,68.30
2022-08-17T05:32:55.057Z,67.80
2022-08-17T05:35:23.629Z,67.20
2022-08-17T05:37:51.954Z,66.60
2022-08-17T05:40:20.834Z,66.30
2022-08-17T05:42:49.002Z,66.20
2022-08-17T05:45:32.142Z,66.70
2022-08-17T05:48:08.822Z,66.10
2022-08-17T05:50:41.409Z,64.40
2022-08-17T05:53:13.796Z,63.70
2022-08-17T05:55:46.705Z,64.50
2022-08-17T05:58:19.584Z,65.10
2022-08-17T06:00:52.393Z,65.10
2022-08-17T06:03:26.490Z,65.80
2022-08-17T06:06:09.811Z,66.00
2022-08-17T06:08:41.927Z,66.10
2022-08-17T06:11:15.787Z,65.80
2022-08-17T06:13:52.856Z,65.40
2022-08-17T06:16:34.211Z,65.70
2022-08-17T06:19:05.288Z,65.70
2022-08-17T06:21:36.064Z,65.40
2022-08-17T06:24:06.767Z,65.60
2022-08-17T06:26:41.062Z,66.00
2022-08-17T06:29:18.721Z,66.20
2022-08-17T06:31:48.860Z,66.70
2022-08-17T06:34:16.855Z,66.90
2022-08-17T06:36:49.623Z,66.50
2022-08-17T06:39:26.486Z,66.80
2022-08-17T06:41:57.860Z,67.20
2022-08-17T06:44:42.172Z,67.50
2022-08-17T06:47:28.680Z,67.80
2022-08-17T06:50:01.326Z,67.90
2022-08-17T06:52:55.544Z,68.10
2022-08-17T06:55:22.375Z,68.00
2022-08-17T06:57:51.991Z,68.00
2022-08-17T07:00:22.276Z,67.80
2022-08-17T07:02:55.590Z,67.70
2022-08-17T07:05:24.966Z,67.50
2022-08-17T07:08:03.113Z,67.10
2022-08-17T07:10:36.380Z,66.80
2022-08-17T07:13:12.165Z,66.10
2022-08-17T07:15:42.876Z,65.60
2022-08-17T07:18:12.181Z,65.10
2022-08-17T07:20:43.545Z,64.10
2022-08-17T07:23:17.376Z,64.30
2022-08-17T07:25:45.280Z,64.50
2022-08-17T07:28:13.164Z,64.90
2022-08-17T07:30:47.004Z,64.60
2022-08-17T07:33:20.405Z,64.90
2022-08-17T07:35:49.976Z,65.10
2022-08-17T07:38:25.913Z,64.80
2022-08-17T07:41:02.529Z,65.10
2022-08-17T07:43:31.664Z,65.50
2022-08-17T07:46:32.550Z,65.80
2022-08-17T07:49:15.313Z,65.70
2022-08-17T07:51:55.442Z,65.70
2022-08-17T07:54:28.116Z,65.70
2022-08-17T07:56:56.805Z,65.70
2022-08-17T07:59:28.612Z,65.80
2022-08-17T08:02:05.374Z,66.40
2022-08-17T08:04:58.846Z,67.00
2022-08-17T08:07:27.179Z,66.70
2022-08-17T08:10:01.859Z,66.10
2022-08-17T08:12:33.808Z,65.90
2022-08-17T08:15:03.634Z,66.80
2022-08-17T08:17:35.878Z,67.40
2022-08-17T08:20:37.774Z,68.60
2022-08-17T08:23:00.953Z,68.90
2022-08-17T08:25:33.731Z,69.10
2022-08-17T08:28:07.407Z,69.60
2022-08-17T08:30:37.222Z,70.30
2022-08-17T08:33:23.036Z,71.70
2022-08-17T08:35:53.706Z,72.30
2022-08-17T08:38:30.832Z,72.30
2022-08-17T08:41:05.600Z,73.50
2022-08-17T08:43:37.239Z,73.70
2022-08-17T08:46:08.654Z,73.80
2022-08-17T08:49:02.668Z,73.90
2022-08-17T08:51:42.953Z,74.10
2022-08-17T08:54:16.483Z,73.90
2022-08-17T08:57:19.777Z,73.80
2022-08-17T08:59:45.044Z,73.50
2022-08-17T09:02:34.587Z,72.70
2022-08-17T09:05:16.501Z,71.70
2022-08-17T09:07:50.271Z,70.00
2022-08-17T09:10:26.600Z,68.50
2022-08-17T09:13:05.964Z,66.90
2022-08-17T09:15:41.447Z,67.20
2022-08-17T09:21:03.852Z,66.30
2022-08-17T09:23:36.763Z,66.20
2022-08-17T09:26:13.135Z,66.90
2022-08-17T09:28:44.752Z,67.20
2022-08-17T09:31:16.324Z,66.70
2022-08-17T09:33:46.082Z,66.70
2022-08-17T09:36:20.228Z,66.90
2022-08-17T09:38:54.081Z,67.40
2022-08-17T09:41:28.343Z,66.40
2022-08-17T09:44:01.321Z,65.60
2022-08-17T09:46:31.914Z,65.20
2022-08-17T09:49:04.541Z,63.80
2022-08-17T09:51:34.533Z,62.90
2022-08-17T09:54:34.864Z,60.80
2022-08-17T09:57:25.956Z,60.10
2022-08-17T09:59:51.844Z,57.70
2022-08-17T10:02:36.007Z,56.70
2022-08-17T10:05:06.677Z,56.00
2022-08-17T10:07:38.363Z,55.70
2022-08-17T10:10:14.205Z,56.00
2022-08-17T10:12:48.520Z,55.30
2022-08-17T10:15:27.660Z,54.90
2022-08-17T10:18:07.979Z,53.50
2022-08-17T10:20:40.584Z,52.80
2022-08-17T10:23:31.017Z,49.40
2022-08-17T10:26:22.984Z,47.40
2022-08-17T10:28:54.366Z,44.80
2022-08-17T10:31:35.766Z,43.10
2022-08-17T10:34:22.938Z,41.90
2022-08-17T10:36:55.427Z,41.20
2022-08-17T10:39:29.086Z,41.60
2022-08-17T10:42:00.620Z,43.30
2022-08-17T10:44:37.094Z,44.00
2022-08-17T10:47:08.783Z,45.40
2022-08-17T10:49:37.356Z,47.00
2022-08-17T10:52:26.318Z,49.30
2022-08-17T10:55:12.387Z,51.90
2022-08-17T10:57:41.868Z,54.40
2022-08-17T11:00:30.917Z,59.60
2022-08-17T11:03:01.080Z,61.20
2022-08-17T11:05:45.243Z,61.80
2022-08-17T11:08:27.295Z,62.10
2022-08-17T11:11:10.480Z,62.60
2022-08-17T11:13:41.167Z,62.70
2022-08-17T11:16:18.016Z,62.50
2022-08-17T11:19:05.097Z,62.70
2022-08-17T11:21:46.455Z,63.00
2022-08-17T11:24:15.761Z,62.20
2022-08-17T11:26:47.683Z,62.10
2022-08-17T11:29:20.474Z,62.00
2022-08-17T11:32:01.303Z,61.20
2022-08-17T11:34:31.997Z,60.10
2022-08-17T11:37:21.209Z,58.60
2022-08-17T11:40:05.033Z,57.10
2022-08-17T11:42:47.197Z,55.40
2022-08-17T11:45:32.262Z,53.20
2022-08-17T11:48:28.189Z,53.50
2022-08-17T11:51:24.621Z,54.00
2022-08-17T11:54:30.539Z,50.90
2022-08-17T11:56:50.132Z,50.40
2022-08-17T11:59:37.398Z,49.20
2022-08-17T12:02:31.754Z,47.70
2022-08-17T12:05:13.188Z,46.90
2022-08-17T12:07:44.752Z,47.90
2022-08-17T12:10:16.120Z,47.50
2022-08-17T12:12:45.366Z,48.10
2022-08-17T12:15:17.975Z,48.30
2022-08-17T12:17:53.036Z,49.50
2022-08-17T12:20:24.122Z,50.50
2022-08-17T12:23:00.938Z,50.70
2022-08-17T12:25:34.992Z,50.80
2022-08-17T12:28:06.223Z,51.20
2022-08-17T12:30:36.383Z,50.20
2022-08-17T12:33:04.873Z,51.10
2022-08-17T12:35:35.216Z,51.90
2022-08-17T12:38:31.929Z,52.50
2022-08-17T12:40:58.127Z,53.20
2022-08-17T12:43:29.316Z,53.20
2022-08-17T12:45:59.458Z,52.80
2022-08-17T12:48:28.687Z,53.40
2022-08-17T12:51:00.460Z,52.90
2022-08-17T12:53:31.093Z,52.60
2022-08-17T12:56:00.217Z,51.20
2022-08-17T12:58:30.283Z,51.00
2022-08-17T13:01:01.348Z,51.20
2022-08-17T13:03:36.360Z,51.10
2022-08-17T13:06:06.670Z,50.90
2022-08-17T13:08:37.646Z,50.40
2022-08-17T13:11:08.500Z,49.80
2022-08-17T13:13:38.414Z,49.20
2022-08-17T13:16:09.585Z,49.30
2022-08-17T13:18:40.140Z,49.70
2022-08-17T13:21:12.626Z,49.70
2022-08-17T13:23:50.923Z,50.40
2022-08-17T13:26:27.790Z,50.60
2022-08-17T13:28:56.336Z,50.90
2022-08-17T13:31:33.042Z,51.10
2022-08-17T13:34:16.802Z,50.70
2022-08-17T13:36:48.768Z,49.80
2022-08-17T13:39:21.431Z,49.30
2022-08-17T13:41:50.241Z,50.00
2022-08-17T13:44:31.171Z,49.30
2022-08-17T13:46:59.704Z,47.70
2022-08-17T13:49:48.165Z,46.40
2022-08-17T13:52:34.242Z,45.70
2022-08-17T13:55:06.155Z,44.20
2022-08-17T13:57:34.583Z,42.70
2022-08-17T14:00:10.294Z,42.60
2022-08-17T14:02:38.661Z,42.60
2022-08-17T14:05:07.079Z,42.90
2022-08-17T14:07:36.249Z,42.50
2022-08-17T14:10:08.421Z,41.90
2022-08-17T14:12:38.691Z,41.10
2022-08-17T14:15:07.650Z,40.90
2022-08-17T14:17:38.934Z,40.90
2022-08-17T14:20:09.407Z,40.50
2022-08-17T14:22:39.164Z,39.80
2022-08-17T14:25:10.692Z,39.90
2022-08-17T14:27:51.904Z,40.50
2022-08-17T14:30:22.373Z,40.10
2022-08-17T14:32:52.117Z,39.90
2022-08-17T14:35:22.271Z,40.10
2022-08-17T14:37:50.783Z,39.90
2022-08-17T14:40:24.681Z,39.40
2022-08-17T14:42:54.233Z,38.50
2022-08-17T14:45:31.926Z,38.00
2022-08-17T14:48:01.719Z,38.20
2022-08-17T14:50:29.868Z,38.60
2022-08-17T14:53:01.630Z,38.80
2022-08-17T14:55:32.515Z,40.00
2022-08-17T14:58:00.610Z,40.10
2022-08-17T15:00:28.725Z,39.40
2022-08-17T15:02:58.406Z,37.90
2022-08-17T15:05:31.596Z,38.60
2022-08-17T15:08:00.961Z,38.90
2022-08-17T15:10:29.899Z,39.80
2022-08-17T15:13:00.540Z,38.40
2022-08-17T15:15:32.166Z,39.10
2022-08-17T15:18:01.164Z,41.00
2022-08-17T15:20:30.583Z,41.70
2022-08-17T15:22:59.424Z,41.20
2022-08-17T15:25:28.734Z,40.70
2022-08-17T15:27:56.923Z,40.50
2022-08-17T15:30:26.980Z,39.40
2022-08-17T15:32:55.740Z,39.20
2022-08-17T15:35:28.359Z,39.30
2022-08-17T15:37:57.776Z,40.20
2022-08-17T15:40:26.238Z,39.90
2022-08-17T15:42:54.307Z,40.00
2022-08-17T15:45:24.587Z,40.00
2022-08-17T15:47:54.196Z,39.40
2022-08-17T15:50:22.544Z,40.20
2022-08-17T15:52:55.437Z,40.80
2022-08-17T15:55:24.308Z,40.80
2022-08-17T15:57:53.221Z,40.00
2022-08-17T16:00:26.036Z,40.00
2022-08-17T16:03:45.129Z,39.10
2022-08-17T16:05:44.302Z,39.30
2022-08-17T16:08:20.084Z,39.80
2022-08-17T16:10:49.364Z,39.70
2022-08-17T16:13:18.209Z,40.50
2022-08-17T16:15:53.058Z,41.00
2022-08-17T16:18:30.771Z,41.10
2022-08-17T16:21:19.286Z,41.20
2022-08-17T16:23:47.804Z,41.50
2022-08-17T16:26:16.129Z,42.00
2022-08-17T16:28:44.349Z,42.50
2022-08-17T16:31:12.487Z,43.10
2022-08-17T16:33:42.251Z,43.60
2022-08-17T16:36:30.156Z,44.30
2022-08-17T16:38:58.281Z,45.00
2022-08-17T16:41:45.253Z,45.30
2022-08-17T16:44:15.282Z,45.40
2022-08-17T16:46:45.633Z,45.40
2022-08-17T16:49:33.632Z,46.00
2022-08-17T16:52:04.921Z,46.40
2022-08-17T16:54:35.586Z,46.70
2022-08-17T16:57:05.147Z,47.00
2022-08-17T16:59:42.134Z,47.60
2022-08-17T17:02:13.626Z,48.10
2022-08-17T17:04:45.324Z,48.60
2022-08-17T17:07:21.070Z,48.90
2022-08-17T17:09:52.640Z,48.70
2022-08-17T17:12:32.309Z,48.70
2022-08-17T17:15:09.104Z,48.50
2022-08-17T17:17:37.812Z,48.30
2022-08-17T17:20:09.588Z,48.30
2022-08-17T17:22:42.527Z,48.00
2022-08-17T17:25:13.615Z,48.10
2022-08-17T17:27:43.981Z,48.50
2022-08-17T17:30:16.361Z,49.00
2022-08-17T17:32:46.879Z,48.80
2022-08-17T17:35:18.850Z,48.80
2022-08-17T17:37:47.641Z,49.10
2022-08-17T17:40:17.452Z,49.30
2022-08-17T17:42:45.786Z,49.80
2022-08-17T17:45:17.506Z,50.30
2022-08-17T17:47:45.886Z,50.10
2022-08-17T17:50:14.132Z,50.50
2022-08-17T17:52:48.124Z,50.80
2022-08-17T17:55:24.062Z,51.10
2022-08-17T17:57:58.652Z,51.40
2022-08-17T18:00:29.041Z,51.70
2022-08-17T18:03:04.237Z,52.20
2022-08-17T18:05:48.425Z,52.50
2022-08-17T18:08:32.262Z,52.80
2022-08-17T18:11:07.985Z,53.00
2022-08-17T18:13:44.849Z,53.30
2022-08-17T18:16:15.671Z,53.50
2022-08-17T18:18:44.772Z,53.70
2022-08-17T18:21:16.814Z,53.60
2022-08-17T18:23:52.372Z,53.80
2022-08-17T18:26:42.013Z,54.00
2022-08-17T18:29:31.509Z,54.20
2022-08-17T18:32:16.566Z,54.20
2022-08-17T18:34:47.698Z,54.50
2022-08-17T18:37:30.279Z,54.80
2022-08-17T18:39:59.630Z,55.00
2022-08-17T18:42:29.121Z,55.10
2022-08-17T18:44:57.084Z,55.20
2022-08-17T18:47:25.984Z,55.40
2022-08-17T18:49:57.449Z,55.70
2022-08-17T18:52:27.657Z,55.80
2022-08-17T18:55:08.575Z,56.30
2022-08-17T18:57:38.064Z,56.70
2022-08-17T19:00:12.033Z,56.90
2022-08-17T19:02:50.142Z,57.10
2022-08-17T19:05:27.719Z,57.40
2022-08-17T19:07:55.814Z,57.70
2022-08-17T19:10:28.253Z,58.00
2022-08-17T19:13:00.286Z,58.10
2022-08-17T19:15:32.170Z,58.30
2022-08-17T19:18:03.325Z,58.60
2022-08-17T19:20:33.099Z,59.20
2022-08-17T19:23:04.756Z,59.60
2022-08-17T19:25:35.510Z,59.50
2022-08-17T19:28:21.889Z,59.70
2022-08-17T19:30:51.446Z,59.80
2022-08-17T19:33:20.003Z,60.40
2022-08-17T19:35:51.459Z,60.80
2022-08-17T19:38:26.069Z,61.30
2022-08-17T19:41:01.589Z,61.50
2022-08-17T19:43:38.017Z,61.80
2022-08-17T19:46:12.667Z,62.50
2022-08-17T19:48:47.444Z,62.50
2022-08-17T19:51:18.673Z,62.50
2022-08-17T19:54:04.893Z,62.50
2022-08-17T19:56:41.010Z,62.30
2022-08-17T19:59:12.919Z,62.80
2022-08-17T20:01:45.081Z,63.50
2022-08-17T20:04:17.354Z,63.40
2022-08-17T20:06:47.081Z,63.20
2022-08-17T20:09:21.017Z,63.20
2022-08-17T20:11:55.964Z,63.30
2022-08-17T20:14:25.373Z,63.70
2022-08-17T20:16:53.537Z,63.60
2022-08-17T20:19:24.125Z,64.10
2022-08-17T20:21:55.080Z,64.40
2022-08-17T20:24:26.928Z,64.30
2022-08-17T20:26:58.362Z,64.50
2022-08-17T20:29:37.194Z,64.70
2022-08-17T20:32:18.007Z,64.90
2022-08-17T20:34:47.567Z,65.40
2022-08-17T20:37:30.527Z,65.90
2022-08-17T20:40:21.807Z,66.10
2022-08-17T20:42:51.082Z,66.10
2022-08-17T20:45:37.799Z,66.30
2022-08-17T20:51:12.820Z,67.00
2022-08-17T20:54:06.936Z,67.00
2022-08-17T20:56:50.193Z,67.00
2022-08-17T20:59:37.206Z,67.00
2022-08-17T21:02:18.419Z,67.50
2022-08-17T21:05:00.161Z,67.70
2022-08-17T21:07:30.154Z,67.80
2022-08-17T21:10:16.023Z,67.80
2022-08-17T21:12:47.974Z,68.00
2022-08-17T21:15:24.267Z,68.10
2022-08-17T21:17:59.290Z,68.20
2022-08-17T21:20:32.956Z,68.30
2022-08-17T21:23:09.429Z,68.50
2022-08-17T21:25:51.233Z,68.80
2022-08-17T21:28:22.798Z,69.10
2022-08-17T21:30:59.088Z,69.20
2022-08-17T21:33:31.577Z,69.10
2022-08-17T21:36:15.164Z,69.00
2022-08-17T21:38:53.430Z,68.60
2022-08-17T21:41:27.526Z,68.70
2022-08-17T21:44:01.687Z,68.80
2022-08-17T21:46:30.597Z,69.00
2022-08-17T21:49:09.172Z,69.20
2022-08-17T21:51:45.276Z,69.50
2022-08-17T21:54:26.946Z,69.50
2022-08-17T21:56:55.324Z,69.40
2022-08-17T21:59:27.307Z,69.40
2022-08-17T22:01:57.587Z,69.10
2022-08-17T22:04:28.930Z,69.20
2022-08-17T22:06:57.882Z,69.50
2022-08-17T22:09:27.149Z,69.70
2022-08-17T22:11:58.110Z,70.10
2022-08-17T22:14:52.913Z,70.50
2022-08-17T22:17:18.619Z,70.50
2022-08-17T22:19:48.984Z,70.90
2022-08-17T22:22:26.788Z,71.20
2022-08-17T22:24:57.565Z,71.20
2022-08-17T22:27:40.497Z,71.00
2022-08-17T22:30:15.534Z,70.90
2022-08-17T22:32:44.636Z,71.60
2022-08-17T22:35:26.440Z,71.60
2022-08-17T22:37:54.367Z,71.60
2022-08-17T22:40:26.666Z,71.70
2022-08-17T22:42:54.538Z,71.70
2022-08-17T22:45:24.280Z,71.50
2022-08-17T22:47:55.559Z,71.40
2022-08-17T22:50:27.370Z,71.30
2022-08-17T22:53:17.365Z,71.20
2022-08-17T22:56:10.131Z,71.10
2022-08-17T22:59:00.375Z,70.90
2022-08-17T23:01:29.467Z,70.60
2022-08-17T23:03:58.415Z,70.60
2022-08-17T23:06:28.043Z,70.90
2022-08-17T23:08:57.681Z,71.00
2022-08-17T23:11:36.698Z,71.20
2022-08-17T23:14:15.629Z,71.40
2022-08-17T23:16:43.735Z,71.20
2022-08-17T23:19:12.238Z,71.10
2022-08-17T23:21:42.006Z,71.10
2022-08-17T23:24:10.736Z,71.30
2022-08-17T23:26:40.920Z,71.20
2022-08-17T23:29:08.966Z,71.40
2022-08-17T23:31:38.506Z,71.60
2022-08-17T23:34:10.981Z,71.90
2022-08-17T23:36:38.954Z,71.70
2022-08-17T23:39:08.640Z,71.60
2022-08-17T23:41:39.910Z,71.60
2022-08-17T23:44:08.231Z,71.60
2022-08-17T23:46:36.089Z,71.60
2022-08-17T23:49:04.009Z,71.30
2022-08-17T23:51:34.513Z,71.00
2022-08-17T23:54:07.917Z,71.40
2022-08-17T23:56:42.206Z,71.50
2022-08-17T23:59:10.118Z,71.30
